sensor_id;sensor_type;location;lat;lon;timestamp;pressure;altitude;pressure_sealevel;temperature;humidity
48874;BME280;35220;46.204;5.220;2022-10-15T00:02:37;98621.13;;;17.38;68.33
48874;BME280;35220;46.204;5.220;2022-10-15T00:07:38;98625.22;;;17.31;68.64
48874;BME280;35220;46.204;5.220;2022-10-15T00:12:39;98615.94;;;17.19;68.55
48874;BME280;35220;46.204;5.220;2022-10-15T00:17:39;98612.63;;;17.14;68.52
48874;BME280;35220;46.204;5.220;2022-10-15T00:22:40;98605.59;;;17.09;68.84
48874;BME280;35220;46.204;5.220;2022-10-15T00:27:40;98596.03;;;16.99;68.91
48874;BME280;35220;46.204;5.220;2022-10-15T00:32:41;98614.03;;;16.92;68.86
48874;BME280;35220;46.204;5.220;2022-10-15T00:37:41;98604.56;;;16.91;68.95
48874;BME280;35220;46.204;5.220;2022-10-15T00:42:43;98599.03;;;16.92;69.09
48874;BME280;35220;46.204;5.220;2022-10-15T00:47:47;98597.00;;;17.03;68.56
48874;BME280;35220;46.204;5.220;2022-10-15T00:53:24;98593.59;;;17.03;68.54
48874;BME280;35220;46.204;5.220;2022-10-15T00:58:27;98582.00;;;17.04;68.63
48874;BME280;35220;46.204;5.220;2022-10-15T01:03:30;98581.50;;;17.02;68.82
48874;BME280;35220;46.204;5.220;2022-10-15T01:08:34;98584.84;;;17.07;68.80
48874;BME280;35220;46.204;5.220;2022-10-15T01:13:50;98568.44;;;16.97;68.79
48874;BME280;35220;46.204;5.220;2022-10-15T01:19:09;98577.88;;;16.98;68.77
48874;BME280;35220;46.204;5.220;2022-10-15T01:40:31;98566.97;;;17.04;68.94
48874;BME280;35220;46.204;5.220;2022-10-15T01:45:39;98552.16;;;17.08;68.38
48874;BME280;35220;46.204;5.220;2022-10-15T01:50:45;98555.88;;;17.07;68.47
48874;BME280;35220;46.204;5.220;2022-10-15T01:55:47;98549.25;;;17.10;68.46
48874;BME280;35220;46.204;5.220;2022-10-15T02:00:48;98553.53;;;17.06;68.51
48874;BME280;35220;46.204;5.220;2022-10-15T02:06:00;98541.53;;;17.00;68.60
48874;BME280;35220;46.204;5.220;2022-10-15T02:11:11;98548.84;;;17.03;68.23
48874;BME280;35220;46.204;5.220;2022-10-15T02:21:25;98551.56;;;16.98;68.74
48874;BME280;35220;46.204;5.220;2022-10-15T02:26:29;98529.53;;;16.94;68.75
48874;BME280;35220;46.204;5.220;2022-10-15T02:31:32;98531.22;;;16.89;68.79
48874;BME280;35220;46.204;5.220;2022-10-15T02:36:34;98537.63;;;16.83;68.56
48874;BME280;35220;46.204;5.220;2022-10-15T02:41:37;98544.03;;;16.77;68.73
48874;BME280;35220;46.204;5.220;2022-10-15T02:46:38;98540.69;;;16.71;68.88
48874;BME280;35220;46.204;5.220;2022-10-15T02:51:39;98527.81;;;16.56;69.18
48874;BME280;35220;46.204;5.220;2022-10-15T02:56:39;98522.47;;;16.61;68.90
48874;BME280;35220;46.204;5.220;2022-10-15T03:01:39;98522.28;;;16.58;68.98
48874;BME280;35220;46.204;5.220;2022-10-15T03:06:40;98526.53;;;16.53;69.28
48874;BME280;35220;46.204;5.220;2022-10-15T03:11:40;98521.28;;;16.53;69.26
48874;BME280;35220;46.204;5.220;2022-10-15T03:16:41;98520.69;;;16.57;69.09
48874;BME280;35220;46.204;5.220;2022-10-15T03:21:41;98519.31;;;16.59;69.04
48874;BME280;35220;46.204;5.220;2022-10-15T03:26:41;98517.50;;;16.60;68.89
48874;BME280;35220;46.204;5.220;2022-10-15T03:31:42;98511.75;;;16.71;68.65
48874;BME280;35220;46.204;5.220;2022-10-15T03:36:42;98514.88;;;16.73;68.54
48874;BME280;35220;46.204;5.220;2022-10-15T03:41:43;98507.84;;;16.69;68.81
48874;BME280;35220;46.204;5.220;2022-10-15T03:46:43;98505.44;;;16.72;68.50
48874;BME280;35220;46.204;5.220;2022-10-15T03:51:43;98508.34;;;16.71;68.68
48874;BME280;35220;46.204;5.220;2022-10-15T03:56:44;98500.75;;;16.69;69.08
48874;BME280;35220;46.204;5.220;2022-10-15T04:01:44;98485.94;;;16.73;68.72
48874;BME280;35220;46.204;5.220;2022-10-15T04:06:44;98500.84;;;16.78;68.54
48874;BME280;35220;46.204;5.220;2022-10-15T04:11:46;98505.34;;;16.78;68.50
48874;BME280;35220;46.204;5.220;2022-10-15T04:16:47;98506.41;;;16.77;68.71
48874;BME280;35220;46.204;5.220;2022-10-15T04:21:47;98510.97;;;16.71;68.40
48874;BME280;35220;46.204;5.220;2022-10-15T04:26:48;98500.94;;;16.73;68.57
48874;BME280;35220;46.204;5.220;2022-10-15T04:31:48;98505.72;;;16.71;68.47
48874;BME280;35220;46.204;5.220;2022-10-15T04:36:48;98487.88;;;16.68;68.93
48874;BME280;35220;46.204;5.220;2022-10-15T04:41:49;98497.22;;;16.60;68.80
48874;BME280;35220;46.204;5.220;2022-10-15T04:46:49;98497.50;;;16.59;68.51
48874;BME280;35220;46.204;5.220;2022-10-15T04:51:49;98506.09;;;16.50;68.96
48874;BME280;35220;46.204;5.220;2022-10-15T04:56:50;98507.22;;;16.44;69.18
48874;BME280;35220;46.204;5.220;2022-10-15T05:01:50;98506.66;;;16.47;68.93
48874;BME280;35220;46.204;5.220;2022-10-15T05:06:50;98502.53;;;16.41;69.21
48874;BME280;35220;46.204;5.220;2022-10-15T05:11:51;98511.41;;;16.31;69.21
48874;BME280;35220;46.204;5.220;2022-10-15T05:16:51;98524.63;;;16.26;69.63
48874;BME280;35220;46.204;5.220;2022-10-15T05:21:52;98508.63;;;16.23;69.74
48874;BME280;35220;46.204;5.220;2022-10-15T05:26:52;98516.88;;;16.16;69.68
48874;BME280;35220;46.204;5.220;2022-10-15T05:31:52;98518.03;;;16.10;69.77
48874;BME280;35220;46.204;5.220;2022-10-15T05:36:53;98519.88;;;16.09;69.90
48874;BME280;35220;46.204;5.220;2022-10-15T05:41:53;98508.59;;;16.09;69.73
48874;BME280;35220;46.204;5.220;2022-10-15T05:46:53;98529.81;;;16.12;69.84
48874;BME280;35220;46.204;5.220;2022-10-15T05:51:54;98523.72;;;16.17;69.47
48874;BME280;35220;46.204;5.220;2022-10-15T05:56:54;98530.03;;;16.16;69.57
48874;BME280;35220;46.204;5.220;2022-10-15T06:01:55;98532.59;;;16.21;69.31
48874;BME280;35220;46.204;5.220;2022-10-15T06:06:55;98538.88;;;16.20;69.58
48874;BME280;35220;46.204;5.220;2022-10-15T06:11:55;98530.94;;;16.25;69.37
48874;BME280;35220;46.204;5.220;2022-10-15T06:16:56;98533.75;;;16.29;69.52
48874;BME280;35220;46.204;5.220;2022-10-15T06:21:56;98526.19;;;16.27;69.47
48874;BME280;35220;46.204;5.220;2022-10-15T06:26:57;98532.84;;;16.39;69.12
48874;BME280;35220;46.204;5.220;2022-10-15T06:31:58;98534.81;;;16.47;68.75
48874;BME280;35220;46.204;5.220;2022-10-15T06:36:59;98528.88;;;16.55;68.66
48874;BME280;35220;46.204;5.220;2022-10-15T06:41:59;98526.03;;;16.51;68.60
48874;BME280;35220;46.204;5.220;2022-10-15T06:47:00;98534.69;;;16.52;68.96
48874;BME280;35220;46.204;5.220;2022-10-15T06:52:00;98541.94;;;16.60;68.39
48874;BME280;35220;46.204;5.220;2022-10-15T06:57:00;98551.03;;;16.82;68.21
48874;BME280;35220;46.204;5.220;2022-10-15T07:02:01;98548.25;;;16.92;68.09
48874;BME280;35220;46.204;5.220;2022-10-15T07:07:01;98551.88;;;17.10;67.73
48874;BME280;35220;46.204;5.220;2022-10-15T07:12:03;98551.00;;;17.01;67.38
48874;BME280;35220;46.204;5.220;2022-10-15T07:17:03;98554.03;;;17.08;67.56
48874;BME280;35220;46.204;5.220;2022-10-15T07:22:03;98551.69;;;17.06;67.24
48874;BME280;35220;46.204;5.220;2022-10-15T07:27:04;98549.25;;;17.10;67.32
48874;BME280;35220;46.204;5.220;2022-10-15T07:32:04;98558.63;;;17.16;67.24
48874;BME280;35220;46.204;5.220;2022-10-15T07:37:05;98564.66;;;17.17;66.73
48874;BME280;35220;46.204;5.220;2022-10-15T07:42:05;98571.47;;;17.18;66.65
48874;BME280;35220;46.204;5.220;2022-10-15T07:47:06;98570.97;;;17.29;66.69
48874;BME280;35220;46.204;5.220;2022-10-15T07:52:06;98588.06;;;17.32;66.60
48874;BME280;35220;46.204;5.220;2022-10-15T07:57:09;98580.03;;;17.37;66.48
48874;BME280;35220;46.204;5.220;2022-10-15T08:02:19;98569.50;;;17.51;65.42
48874;BME280;35220;46.204;5.220;2022-10-15T08:07:20;98586.44;;;17.73;65.69
48874;BME280;35220;46.204;5.220;2022-10-15T08:12:20;98588.03;;;17.88;65.02
48874;BME280;35220;46.204;5.220;2022-10-15T08:17:21;98593.00;;;18.12;64.81
48874;BME280;35220;46.204;5.220;2022-10-15T08:22:21;98589.97;;;18.18;64.47
48874;BME280;35220;46.204;5.220;2022-10-15T08:27:22;98587.47;;;18.36;64.62
48874;BME280;35220;46.204;5.220;2022-10-15T08:32:22;98586.50;;;18.54;63.17
48874;BME280;35220;46.204;5.220;2022-10-15T08:37:22;98592.00;;;18.67;62.84
48874;BME280;35220;46.204;5.220;2022-10-15T08:42:31;98595.16;;;18.77;62.55
48874;BME280;35220;46.204;5.220;2022-10-15T08:52:46;98599.41;;;19.18;62.51
48874;BME280;35220;46.204;5.220;2022-10-15T08:58:41;98587.22;;;19.40;59.41
48874;BME280;35220;46.204;5.220;2022-10-15T09:03:57;98595.81;;;19.63;58.94
48874;BME280;35220;46.204;5.220;2022-10-15T09:14:42;98579.53;;;19.87;57.96
48874;BME280;35220;46.204;5.220;2022-10-15T09:19:44;98578.28;;;20.20;59.56
48874;BME280;35220;46.204;5.220;2022-10-15T09:24:46;98582.50;;;20.21;57.84
48874;BME280;35220;46.204;5.220;2022-10-15T09:29:52;98571.47;;;20.19;57.28
48874;BME280;35220;46.204;5.220;2022-10-15T09:35:19;98565.50;;;20.48;55.80
48874;BME280;35220;46.204;5.220;2022-10-15T09:45:41;98565.03;;;20.63;57.85
48874;BME280;35220;46.204;5.220;2022-10-15T09:50:44;98560.97;;;20.66;56.53
48874;BME280;35220;46.204;5.220;2022-10-15T09:56:04;98571.66;;;20.87;54.43
48874;BME280;35220;46.204;5.220;2022-10-15T10:01:17;98573.72;;;20.55;54.39
48874;BME280;35220;46.204;5.220;2022-10-15T10:06:18;98567.78;;;20.84;55.24
48874;BME280;35220;46.204;5.220;2022-10-15T10:11:21;98562.22;;;20.68;54.64
48874;BME280;35220;46.204;5.220;2022-10-15T10:16:23;98548.69;;;20.61;55.07
48874;BME280;35220;46.204;5.220;2022-10-15T10:21:29;98561.53;;;20.80;53.71
48874;BME280;35220;46.204;5.220;2022-10-15T10:26:34;98574.06;;;21.39;52.96
48874;BME280;35220;46.204;5.220;2022-10-15T10:31:35;98566.22;;;21.52;52.86
48874;BME280;35220;46.204;5.220;2022-10-15T10:36:41;98562.28;;;21.58;53.56
48874;BME280;35220;46.204;5.220;2022-10-15T10:47:13;98565.50;;;21.63;51.35
48874;BME280;35220;46.204;5.220;2022-10-15T10:52:32;98553.38;;;21.83;50.69
48874;BME280;35220;46.204;5.220;2022-10-15T10:57:47;98560.97;;;22.06;51.25
48874;BME280;35220;46.204;5.220;2022-10-15T11:02:50;98547.94;;;21.80;50.40
48874;BME280;35220;46.204;5.220;2022-10-15T11:08:13;98553.34;;;22.05;50.54
48874;BME280;35220;46.204;5.220;2022-10-15T11:13:31;98531.91;;;22.31;49.91
48874;BME280;35220;46.204;5.220;2022-10-15T11:24:01;98521.97;;;22.40;50.23
48874;BME280;35220;46.204;5.220;2022-10-15T11:29:11;98518.81;;;22.84;48.97
48874;BME280;35220;46.204;5.220;2022-10-15T11:44:41;98510.84;;;22.84;48.59
48874;BME280;35220;46.204;5.220;2022-10-15T11:55:18;98494.16;;;22.83;48.34
48874;BME280;35220;46.204;5.220;2022-10-15T12:00:41;98494.19;;;23.48;47.87
48874;BME280;35220;46.204;5.220;2022-10-15T12:05:52;98482.94;;;23.67;46.25
48874;BME280;35220;46.204;5.220;2022-10-15T12:16:22;98482.81;;;24.04;45.85
48874;BME280;35220;46.204;5.220;2022-10-15T12:26:33;98474.00;;;23.60;47.08
48874;BME280;35220;46.204;5.220;2022-10-15T12:31:47;98464.31;;;24.40;45.15
48874;BME280;35220;46.204;5.220;2022-10-15T12:36:58;98452.50;;;24.25;44.48
48874;BME280;35220;46.204;5.220;2022-10-15T12:41:59;98463.56;;;23.95;46.43
48874;BME280;35220;46.204;5.220;2022-10-15T12:47:00;98459.50;;;23.85;46.28
48874;BME280;35220;46.204;5.220;2022-10-15T12:52:01;98445.63;;;23.92;45.85
48874;BME280;35220;46.204;5.220;2022-10-15T13:02:37;98444.28;;;24.62;45.17
48874;BME280;35220;46.204;5.220;2022-10-15T13:07:39;98422.53;;;24.28;45.52
48874;BME280;35220;46.204;5.220;2022-10-15T13:12:40;98420.22;;;27.18;40.51
48874;BME280;35220;46.204;5.220;2022-10-15T13:17:40;98402.06;;;33.37;30.08
48874;BME280;35220;46.204;5.220;2022-10-15T13:22:41;98393.56;;;35.36;28.57
48874;BME280;35220;46.204;5.220;2022-10-15T13:27:41;98399.16;;;34.49;29.39
48874;BME280;35220;46.204;5.220;2022-10-15T13:32:46;98406.06;;;33.83;27.55
48874;BME280;35220;46.204;5.220;2022-10-15T13:37:48;98397.16;;;32.93;30.13
48874;BME280;35220;46.204;5.220;2022-10-15T13:42:58;98385.91;;;35.15;25.34
48874;BME280;35220;46.204;5.220;2022-10-15T13:47:59;98382.59;;;34.87;26.48
48874;BME280;35220;46.204;5.220;2022-10-15T13:53:34;98381.31;;;36.14;23.72
48874;BME280;35220;46.204;5.220;2022-10-15T13:58:37;98372.06;;;36.57;24.07
48874;BME280;35220;46.204;5.220;2022-10-15T14:03:45;98384.13;;;35.94;23.29
48874;BME280;35220;46.204;5.220;2022-10-15T14:08:48;98389.38;;;36.47;24.81
48874;BME280;35220;46.204;5.220;2022-10-15T14:13:51;98381.16;;;34.82;25.82
48874;BME280;35220;46.204;5.220;2022-10-15T14:18:55;98379.81;;;35.11;26.08
48874;BME280;35220;46.204;5.220;2022-10-15T14:29:28;98366.44;;;37.19;22.57
48874;BME280;35220;46.204;5.220;2022-10-15T14:34:37;98362.44;;;36.10;23.14
48874;BME280;35220;46.204;5.220;2022-10-15T14:39:39;98371.41;;;35.58;25.03
48874;BME280;35220;46.204;5.220;2022-10-15T14:44:41;98363.69;;;35.40;25.00
48874;BME280;35220;46.204;5.220;2022-10-15T14:49:42;98355.72;;;35.33;24.46
48874;BME280;35220;46.204;5.220;2022-10-15T14:59:56;98357.16;;;30.97;29.72
48874;BME280;35220;46.204;5.220;2022-10-15T15:10:14;98361.09;;;28.01;33.06
48874;BME280;35220;46.204;5.220;2022-10-15T15:15:16;98343.28;;;28.97;31.59
48874;BME280;35220;46.204;5.220;2022-10-15T15:20:18;98336.44;;;29.10;31.15
48874;BME280;35220;46.204;5.220;2022-10-15T15:25:28;98348.25;;;28.88;32.24
48874;BME280;35220;46.204;5.220;2022-10-15T15:30:30;98337.78;;;28.61;32.85
48874;BME280;35220;46.204;5.220;2022-10-15T15:35:40;98343.78;;;28.43;33.74
48874;BME280;35220;46.204;5.220;2022-10-15T15:40:43;98338.16;;;28.63;33.15
48874;BME280;35220;46.204;5.220;2022-10-15T15:45:45;98331.59;;;27.94;34.23
48874;BME280;35220;46.204;5.220;2022-10-15T15:50:45;98334.22;;;27.12;35.71
48874;BME280;35220;46.204;5.220;2022-10-15T15:55:46;98322.53;;;26.90;36.21
48874;BME280;35220;46.204;5.220;2022-10-15T16:00:46;98311.78;;;27.20;35.82
48874;BME280;35220;46.204;5.220;2022-10-15T16:05:46;98319.72;;;27.47;35.55
48874;BME280;35220;46.204;5.220;2022-10-15T16:10:48;98321.47;;;27.32;36.11
48874;BME280;35220;46.204;5.220;2022-10-15T16:15:49;98329.47;;;26.98;36.74
48874;BME280;35220;46.204;5.220;2022-10-15T16:20:49;98324.19;;;26.71;37.17
48874;BME280;35220;46.204;5.220;2022-10-15T16:25:50;98326.31;;;26.32;37.98
48874;BME280;35220;46.204;5.220;2022-10-15T16:30:51;98323.94;;;26.00;38.67
48874;BME280;35220;46.204;5.220;2022-10-15T16:35:51;98335.25;;;25.70;39.36
48874;BME280;35220;46.204;5.220;2022-10-15T16:40:52;98344.25;;;25.39;40.03
48874;BME280;35220;46.204;5.220;2022-10-15T16:45:56;98344.31;;;25.03;40.35
48874;BME280;35220;46.204;5.220;2022-10-15T16:51:07;98356.13;;;24.67;41.59
48874;BME280;35220;46.204;5.220;2022-10-15T16:56:17;98360.53;;;24.43;41.59
48874;BME280;35220;46.204;5.220;2022-10-15T17:01:20;98359.63;;;24.20;42.03
48874;BME280;35220;46.204;5.220;2022-10-15T17:06:23;98359.00;;;23.95;42.48
48874;BME280;35220;46.204;5.220;2022-10-15T17:16:34;98376.00;;;23.46;43.63
48874;BME280;35220;46.204;5.220;2022-10-15T17:21:36;98369.91;;;23.17;44.26
48874;BME280;35220;46.204;5.220;2022-10-15T17:26:37;98385.22;;;22.95;44.90
48874;BME280;35220;46.204;5.220;2022-10-15T17:31:39;98389.44;;;22.72;45.52
48874;BME280;35220;46.204;5.220;2022-10-15T17:36:42;98386.84;;;22.35;47.06
48874;BME280;35220;46.204;5.220;2022-10-15T17:41:44;98385.00;;;22.14;47.26
48874;BME280;35220;46.204;5.220;2022-10-15T17:46:45;98384.09;;;21.86;49.10
48874;BME280;35220;46.204;5.220;2022-10-15T17:51:46;98389.34;;;21.73;48.52
48874;BME280;35220;46.204;5.220;2022-10-15T17:56:46;98396.84;;;21.59;49.17
48874;BME280;35220;46.204;5.220;2022-10-15T18:01:47;98403.34;;;21.40;49.99
48874;BME280;35220;46.204;5.220;2022-10-15T18:06:48;98414.94;;;21.36;49.37
48874;BME280;35220;46.204;5.220;2022-10-15T18:11:48;98406.78;;;21.20;49.71
48874;BME280;35220;46.204;5.220;2022-10-15T18:16:48;98415.63;;;21.03;51.28
48874;BME280;35220;46.204;5.220;2022-10-15T18:21:49;98410.69;;;20.93;50.74
48874;BME280;35220;46.204;5.220;2022-10-15T18:26:50;98410.97;;;20.79;51.89
48874;BME280;35220;46.204;5.220;2022-10-15T18:31:51;98416.25;;;20.79;51.60
48874;BME280;35220;46.204;5.220;2022-10-15T18:36:51;98414.09;;;20.72;51.51
48874;BME280;35220;46.204;5.220;2022-10-15T18:41:51;98421.78;;;20.56;53.26
48874;BME280;35220;46.204;5.220;2022-10-15T18:46:52;98422.91;;;20.46;53.40
48874;BME280;35220;46.204;5.220;2022-10-15T18:51:52;98419.03;;;20.44;52.99
48874;BME280;35220;46.204;5.220;2022-10-15T18:56:54;98406.44;;;20.41;52.99
48874;BME280;35220;46.204;5.220;2022-10-15T19:01:54;98417.84;;;20.32;54.04
48874;BME280;35220;46.204;5.220;2022-10-15T19:06:55;98413.31;;;20.33;54.03
48874;BME280;35220;46.204;5.220;2022-10-15T19:11:58;98411.00;;;20.31;53.32
48874;BME280;35220;46.204;5.220;2022-10-15T19:16:58;98411.31;;;20.30;53.07
48874;BME280;35220;46.204;5.220;2022-10-15T19:21:59;98412.59;;;20.24;53.62
48874;BME280;35220;46.204;5.220;2022-10-15T19:26:59;98421.75;;;20.26;52.96
48874;BME280;35220;46.204;5.220;2022-10-15T19:32:00;98421.59;;;20.23;53.09
48874;BME280;35220;46.204;5.220;2022-10-15T19:37:02;98425.81;;;20.24;52.91
48874;BME280;35220;46.204;5.220;2022-10-15T19:42:03;98421.13;;;20.21;53.25
48874;BME280;35220;46.204;5.220;2022-10-15T19:47:04;98422.84;;;20.25;52.91
48874;BME280;35220;46.204;5.220;2022-10-15T19:52:04;98417.56;;;20.25;53.49
48874;BME280;35220;46.204;5.220;2022-10-15T19:57:05;98414.44;;;20.23;52.98
48874;BME280;35220;46.204;5.220;2022-10-15T20:02:05;98420.97;;;20.26;53.13
48874;BME280;35220;46.204;5.220;2022-10-15T20:07:06;98421.13;;;20.21;53.89
48874;BME280;35220;46.204;5.220;2022-10-15T20:12:07;98425.81;;;20.24;53.30
48874;BME280;35220;46.204;5.220;2022-10-15T20:17:07;98417.59;;;20.17;54.08
48874;BME280;35220;46.204;5.220;2022-10-15T20:22:07;98415.72;;;20.17;53.72
48874;BME280;35220;46.204;5.220;2022-10-15T20:27:08;98414.63;;;20.18;53.73
48874;BME280;35220;46.204;5.220;2022-10-15T20:32:08;98417.06;;;20.23;53.44
48874;BME280;35220;46.204;5.220;2022-10-15T20:37:12;98413.81;;;20.26;53.31
48874;BME280;35220;46.204;5.220;2022-10-15T20:42:15;98426.88;;;20.31;52.92
48874;BME280;35220;46.204;5.220;2022-10-15T20:47:15;98411.94;;;20.27;52.96
48874;BME280;35220;46.204;5.220;2022-10-15T20:52:17;98431.66;;;20.38;52.67
48874;BME280;35220;46.204;5.220;2022-10-15T20:57:18;98429.47;;;20.40;52.61
48874;BME280;35220;46.204;5.220;2022-10-15T21:02:18;98432.59;;;20.33;52.77
48874;BME280;35220;46.204;5.220;2022-10-15T21:07:19;98438.66;;;20.34;52.80
48874;BME280;35220;46.204;5.220;2022-10-15T21:12:19;98441.00;;;20.36;52.89
48874;BME280;35220;46.204;5.220;2022-10-15T21:17:19;98443.34;;;20.37;52.89
48874;BME280;35220;46.204;5.220;2022-10-15T21:22:20;98445.06;;;20.33;53.04
48874;BME280;35220;46.204;5.220;2022-10-15T21:27:20;98462.03;;;20.32;53.38
48874;BME280;35220;46.204;5.220;2022-10-15T21:32:21;98467.31;;;20.32;53.46
48874;BME280;35220;46.204;5.220;2022-10-15T21:37:21;98472.16;;;20.30;53.66
48874;BME280;35220;46.204;5.220;2022-10-15T21:42:21;98470.94;;;20.27;53.92
48874;BME280;35220;46.204;5.220;2022-10-15T21:47:22;98470.75;;;20.32;53.41
48874;BME280;35220;46.204;5.220;2022-10-15T21:52:23;98489.00;;;20.25;54.03
48874;BME280;35220;46.204;5.220;2022-10-15T21:57:23;98483.84;;;20.29;53.63
48874;BME280;35220;46.204;5.220;2022-10-15T22:02:24;98508.44;;;20.21;53.95
48874;BME280;35220;46.204;5.220;2022-10-15T22:07:24;98499.91;;;20.15;54.46
48874;BME280;35220;46.204;5.220;2022-10-15T22:12:25;98500.06;;;20.10;55.05
48874;BME280;35220;46.204;5.220;2022-10-15T22:17:25;98505.97;;;20.07;54.99
48874;BME280;35220;46.204;5.220;2022-10-15T22:22:25;98517.16;;;20.12;54.54
48874;BME280;35220;46.204;5.220;2022-10-15T22:27:26;98510.50;;;19.98;55.02
48874;BME280;35220;46.204;5.220;2022-10-15T22:32:26;98513.28;;;19.92;55.49
48874;BME280;35220;46.204;5.220;2022-10-15T22:37:27;98522.16;;;19.97;55.58
48874;BME280;35220;46.204;5.220;2022-10-15T22:42:27;98501.78;;;19.88;56.32
48874;BME280;35220;46.204;5.220;2022-10-15T22:47:27;98511.72;;;19.91;55.78
48874;BME280;35220;46.204;5.220;2022-10-15T22:52:28;98516.25;;;19.91;56.66
48874;BME280;35220;46.204;5.220;2022-10-15T22:57:28;98519.84;;;19.86;56.13
48874;BME280;35220;46.204;5.220;2022-10-15T23:02:28;98518.59;;;19.84;56.75
48874;BME280;35220;46.204;5.220;2022-10-15T23:07:29;98514.25;;;19.79;57.89
48874;BME280;35220;46.204;5.220;2022-10-15T23:12:29;98522.47;;;19.78;57.44
48874;BME280;35220;46.204;5.220;2022-10-15T23:17:30;98520.91;;;19.77;57.76
48874;BME280;35220;46.204;5.220;2022-10-15T23:22:30;98510.94;;;19.73;57.65
48874;BME280;35220;46.204;5.220;2022-10-15T23:27:31;98514.41;;;19.74;57.35
48874;BME280;35220;46.204;5.220;2022-10-15T23:32:31;98518.56;;;19.75;57.71
48874;BME280;35220;46.204;5.220;2022-10-15T23:37:32;98518.28;;;19.77;57.43
48874;BME280;35220;46.204;5.220;2022-10-15T23:42:33;98509.53;;;19.67;58.18
48874;BME280;35220;46.204;5.220;2022-10-15T23:47:33;98514.56;;;19.78;57.79
48874;BME280;35220;46.204;5.220;2022-10-15T23:52:33;98513.75;;;19.77;57.52
48874;BME280;35220;46.204;5.220;2022-10-15T23:57:34;98522.91;;;19.71;58.10
